Time;durP1;ratioP1;P1;durP2;ratioP2;P2;SDS_P1;SDS_P2;PMS_P1;PMS_P2;Temp;Humidity;BMP_temperature;BMP_pressure;BME280_temperature;BME280_humidity;BME280_pressure;Samples;Min_cycle;Max_cycle;Signal;HPM_P1;HPM_P2
2023/05/20 00:02:24;;;;;;;5.27;4.87;;;;;;;12.13;100.00;97135.47;5067147;28;20385;-68
2023/05/20 00:04:52;;;;;;;4.83;4.53;;;;;;;11.87;100.00;97109.56;5057950;28;20357;-67
2023/05/20 00:07:20;;;;;;;5.60;5.03;;;;;;;11.99;100.00;97136.38;5060683;28;20535;-70
2023/05/20 00:09:48;;;;;;;5.27;4.77;;;;;;;11.90;100.00;97133.06;5058537;28;20203;-67
2023/05/20 00:12:17;;;;;;;5.67;5.27;;;;;;;11.85;100.00;97130.97;5052760;28;20230;-68
2023/05/20 00:14:44;;;;;;;5.60;5.07;;;;;;;11.80;100.00;97135.25;5019818;28;20744;-67
2023/05/20 00:17:12;;;;;;;5.50;5.10;;;;;;;11.84;100.00;97136.50;5066605;28;20641;-66
2023/05/20 00:19:39;;;;;;;5.67;5.27;;;;;;;11.78;100.00;97139.91;5063434;28;20322;-70
2023/05/20 00:22:08;;;;;;;5.47;5.17;;;;;;;11.71;100.00;97132.69;5044179;28;20747;-67
2023/05/20 00:24:35;;;;;;;5.67;5.17;;;;;;;11.65;100.00;97130.81;5072043;28;20232;-69
2023/05/20 00:27:03;;;;;;;6.07;5.67;;;;;;;11.64;100.00;97139.00;5042850;28;20300;-66
2023/05/20 00:29:33;;;;;;;5.27;4.97;;;;;;;11.58;100.00;97136.09;5068890;28;20735;-70
2023/05/20 00:32:01;;;;;;;5.73;5.33;;;;;;;11.50;100.00;97130.91;5016490;28;20285;-67
2023/05/20 00:34:28;;;;;;;5.67;5.27;;;;;;;11.49;100.00;97125.81;5069051;28;20963;-69
2023/05/20 00:36:56;;;;;;;5.73;5.33;;;;;;;11.53;100.00;97121.75;5050446;28;20214;-67
2023/05/20 00:39:24;;;;;;;5.77;5.37;;;;;;;11.53;100.00;97119.09;5065457;28;20233;-71
2023/05/20 00:41:52;;;;;;;7.60;6.90;;;;;;;11.43;100.00;97114.94;5049596;28;20243;-67
2023/05/20 00:44:22;;;;;;;6.13;5.73;;;;;;;11.44;100.00;97103.31;5043076;28;20221;-68
2023/05/20 00:46:51;;;;;;;6.30;5.70;;;;;;;11.49;100.00;97104.56;5018968;28;20221;-70
2023/05/20 00:49:19;;;;;;;6.53;6.13;;;;;;;11.50;100.00;97104.38;5067054;28;20316;-68
2023/05/20 00:51:47;;;;;;;6.33;5.93;;;;;;;11.48;100.00;97093.13;5066434;28;20643;-69
2023/05/20 00:54:15;;;;;;;5.83;5.43;;;;;;;11.42;100.00;97099.22;5048329;28;20240;-67
2023/05/20 00:56:42;;;;;;;5.97;5.43;;;;;;;11.43;100.00;97090.22;5024717;28;20282;-67
2023/05/20 00:59:10;;;;;;;6.57;6.07;;;;;;;11.44;100.00;97099.84;5072443;28;20206;-68
2023/05/20 01:01:38;;;;;;;7.93;7.33;;;;;;;11.34;100.00;97094.03;5025822;27;20282;-68
2023/05/20 01:04:07;;;;;;;6.23;5.63;;;;;;;11.32;100.00;97096.06;5071293;28;20225;-68
2023/05/20 01:06:36;;;;;;;5.97;5.40;;;;;;;11.09;100.00;97066.09;5075083;27;20288;-68
2023/05/20 01:09:04;;;;;;;6.57;6.07;;;;;;;11.28;100.00;97092.97;5049613;27;21074;-67
2023/05/20 01:11:36;;;;;;;6.70;6.17;;;;;;;11.25;100.00;97094.19;5056672;28;20234;-67
2023/05/20 01:14:07;;;;;;;6.70;6.17;;;;;;;11.30;100.00;97101.53;5073811;27;21040;-70
2023/05/20 01:16:35;;;;;;;8.57;6.37;;;;;;;11.24;100.00;97099.66;5024171;27;20286;-67
2023/05/20 01:19:08;;;;;;;6.77;6.20;;;;;;;11.20;100.00;97106.34;5072461;28;20258;-68
2023/05/20 01:21:36;;;;;;;6.03;5.60;;;;;;;11.19;100.00;97100.25;5072880;27;20222;-68
2023/05/20 01:24:06;;;;;;;6.80;6.30;;;;;;;11.18;100.00;97090.66;5046329;27;20453;-69
2023/05/20 01:26:37;;;;;;;6.80;6.30;;;;;;;11.14;100.00;97082.25;5062709;28;20208;-68
2023/05/20 01:29:05;;;;;;;7.03;6.53;;;;;;;11.10;100.00;97085.47;5065152;27;20494;-70
2023/05/20 01:31:35;;;;;;;7.10;6.60;;;;;;;10.86;100.00;97053.03;5059121;27;20802;-66
2023/05/20 01:34:03;;;;;;;6.90;6.33;;;;;;;11.04;100.00;97080.91;5045696;27;20527;-69
2023/05/20 01:36:31;;;;;;;7.13;6.43;;;;;;;11.02;100.00;97090.88;5067885;27;20298;-65
2023/05/20 01:39:00;;;;;;;6.13;5.73;;;;;;;11.06;100.00;97077.06;5066681;28;20311;-69
2023/05/20 01:41:30;;;;;;;7.70;7.00;;;;;;;10.99;100.00;97084.16;5069366;27;20218;-67
2023/05/20 01:43:57;;;;;;;8.37;7.67;;;;;;;11.01;100.00;97079.47;5053832;27;20504;-67
2023/05/20 01:46:25;;;;;;;7.13;6.60;;;;;;;10.83;100.00;97053.41;5068613;28;20437;-66
2023/05/20 01:48:52;;;;;;;6.60;6.10;;;;;;;11.06;100.00;97074.44;5018130;27;20222;-69
2023/05/20 01:51:20;;;;;;;7.10;6.50;;;;;;;11.07;100.00;97076.06;5064013;28;20221;-70
2023/05/20 01:53:48;;;;;;;7.73;6.97;;;;;;;11.08;100.00;97072.41;5043362;28;20216;-67
2023/05/20 01:56:15;;;;;;;7.57;7.07;;;;;;;11.12;100.00;97067.53;5072675;28;20300;-68
2023/05/20 01:58:44;;;;;;;7.30;6.80;;;;;;;11.13;100.00;97069.16;5044087;28;20206;-67
2023/05/20 02:01:12;;;;;;;6.53;6.07;;;;;;;11.07;100.00;97072.59;5072357;27;20321;-68
2023/05/20 02:03:39;;;;;;;6.80;6.40;;;;;;;11.13;100.00;97075.31;5012214;27;20664;-67
2023/05/20 02:06:07;;;;;;;6.83;6.33;;;;;;;11.11;100.00;97076.50;5075412;28;20669;-70
2023/05/20 02:08:34;;;;;;;7.00;6.43;;;;;;;11.09;100.00;97079.34;5062492;27;20208;-68
2023/05/20 02:11:02;;;;;;;7.00;6.37;;;;;;;11.06;100.00;97074.44;5060760;27;20222;-67
2023/05/20 02:13:30;;;;;;;7.30;6.63;;;;;;;11.06;100.00;97081.53;5054541;27;20780;-68
2023/05/20 02:15:59;;;;;;;7.53;6.83;;;;;;;11.05;100.00;97066.66;5068049;27;20846;-66
2023/05/20 02:18:26;;;;;;;7.37;6.87;;;;;;;11.06;100.00;97077.06;5019358;27;20237;-68
2023/05/20 02:20:54;;;;;;;7.23;6.63;;;;;;;11.09;100.00;97067.91;5072123;28;20461;-67
2023/05/20 02:23:22;;;;;;;7.57;7.07;;;;;;;11.07;100.00;97069.94;5075587;28;20290;-68
2023/05/20 02:25:49;;;;;;;6.80;6.30;;;;;;;11.02;100.00;97074.97;5051146;27;20989;-66
2023/05/20 02:28:17;;;;;;;7.77;7.20;;;;;;;10.85;100.00;97038.94;5047665;27;20210;-67
2023/05/20 02:30:44;;;;;;;7.27;6.70;;;;;;;11.05;100.00;97064.84;5056409;27;20815;-70
2023/05/20 02:33:14;;;;;;;7.70;7.20;;;;;;;11.04;100.00;97076.44;5068757;27;20300;-68
2023/05/20 02:35:41;;;;;;;8.20;7.40;;;;;;;11.02;100.00;97072.34;5033728;28;20225;-68
2023/05/20 02:38:10;;;;;;;6.97;6.37;;;;;;;10.99;100.00;97077.00;5077142;27;20582;-68
2023/05/20 02:40:37;;;;;;;7.73;7.13;;;;;;;10.91;100.00;97074.47;5045549;27;20339;-67
2023/05/20 02:43:05;;;;;;;7.83;7.23;;;;;;;10.92;100.00;97076.13;5072731;28;20256;-68
2023/05/20 02:45:33;;;;;;;8.03;7.43;;;;;;;10.94;100.00;97068.81;5052424;28;20342;-69
2023/05/20 02:48:01;;;;;;;7.97;7.27;;;;;;;10.96;100.00;97068.59;5076167;27;22009;-67
2023/05/20 02:50:30;;;;;;;8.67;7.97;;;;;;;10.86;100.00;97072.38;5016884;28;20252;-67
2023/05/20 02:52:57;;;;;;;8.00;7.40;;;;;;;10.89;100.00;97076.50;5070383;28;20236;-69
2023/05/20 02:55:25;;;;;;;8.13;7.43;;;;;;;10.90;100.00;97080.78;5070619;27;20316;-69
2023/05/20 02:57:52;;;;;;;9.10;8.30;;;;;;;10.86;100.00;97085.63;5050704;27;20215;-69
2023/05/20 03:00:22;;;;;;;7.37;6.83;;;;;;;10.83;100.00;97075.41;5048636;28;20197;-68
2023/05/20 03:02:50;;;;;;;9.77;8.93;;;;;;;10.83;100.00;97085.22;5074126;28;20633;-59
2023/05/20 03:05:17;;;;;;;8.57;7.97;;;;;;;10.84;100.00;97082.34;5020778;27;20233;-69
2023/05/20 03:07:47;;;;;;;8.17;7.57;;;;;;;10.80;100.00;97089.03;5070654;27;20405;-67
2023/05/20 03:10:15;;;;;;;8.30;7.70;;;;;;;10.77;100.00;97080.63;5067767;28;20229;-68
2023/05/20 03:12:42;;;;;;;8.30;7.70;;;;;;;10.75;100.00;97072.91;5051357;28;20229;-67
2023/05/20 03:15:11;;;;;;;8.07;7.53;;;;;;;10.67;100.00;97075.66;5055401;27;20919;-66
2023/05/20 03:17:39;;;;;;;8.27;7.60;;;;;;;10.58;100.00;97077.59;5068781;28;20228;-67
2023/05/20 03:20:07;;;;;;;8.57;7.87;;;;;;;10.55;100.00;97075.31;5022737;27;20318;-67
2023/05/20 03:22:35;;;;;;;8.10;7.57;;;;;;;10.46;100.00;97076.44;5066796;28;20217;-69
2023/05/20 03:25:05;;;;;;;7.33;6.73;;;;;;;10.41;100.00;97083.09;5071487;27;20225;-66
2023/05/20 03:27:33;;;;;;;8.63;7.83;;;;;;;10.42;100.00;97087.41;5070390;28;20553;-66
2023/05/20 03:30:01;;;;;;;8.50;7.90;;;;;;;10.38;100.00;97083.44;5036127;27;20209;-67
2023/05/20 03:32:28;;;;;;;8.57;7.97;;;;;;;10.32;100.00;97081.53;5069000;28;20225;-67
2023/05/20 03:34:57;;;;;;;8.23;7.53;;;;;;;10.40;100.00;97088.59;5071656;28;20288;-66
2023/05/20 03:37:24;;;;;;;7.63;7.07;;;;;;;10.38;100.00;97087.94;5020337;27;20221;-70
2023/05/20 03:39:52;;;;;;;7.70;7.03;;;;;;;10.36;100.00;97096.03;5071039;28;20204;-66
2023/05/20 03:42:21;;;;;;;7.93;7.30;;;;;;;10.32;100.00;97094.78;5071117;27;20230;-67
2023/05/20 03:44:48;;;;;;;8.77;7.93;;;;;;;10.27;100.00;97102.44;5052563;28;20488;-66
2023/05/20 03:47:16;;;;;;;8.97;8.23;;;;;;;10.27;100.00;97100.63;5056915;27;20318;-67
2023/05/20 03:49:44;;;;;;;8.30;7.67;;;;;;;10.30;100.00;97090.69;5048368;28;20515;-67
2023/05/20 03:52:12;;;;;;;8.40;7.80;;;;;;;10.25;100.00;97085.94;5017744;28;20238;-69
2023/05/20 03:54:39;;;;;;;9.27;8.40;;;;;;;10.23;100.00;97094.06;5055110;28;21578;-68
2023/05/20 03:57:09;;;;;;;8.50;7.90;;;;;;;10.17;100.00;97091.31;5072987;28;20387;-69
2023/05/20 03:59:38;;;;;;;9.40;8.60;;;;;;;10.20;100.00;97090.97;5049550;28;21288;-71
2023/05/20 04:02:06;;;;;;;9.30;8.53;;;;;;;10.18;100.00;97087.69;5052769;28;20225;-71
2023/05/20 04:04:33;;;;;;;8.93;8.23;;;;;;;10.22;100.00;97094.25;5071426;28;20194;-67
2023/05/20 04:07:02;;;;;;;9.17;8.47;;;;;;;10.20;100.00;97097.06;5071899;28;20336;-69
2023/05/20 04:09:29;;;;;;;8.97;8.13;;;;;;;10.18;100.00;97088.47;5003085;28;20304;-69
2023/05/20 04:11:57;;;;;;;9.10;8.40;;;;;;;10.23;100.00;97094.06;5076496;28;20221;-70
2023/05/20 04:14:25;;;;;;;9.57;8.80;;;;;;;10.28;100.00;97083.75;5068687;28;20958;-68
2023/05/20 04:16:53;;;;;;;10.03;9.23;;;;;;;10.32;100.00;97084.19;5050304;28;20289;-70
2023/05/20 04:19:22;;;;;;;9.80;8.63;;;;;;;10.42;100.00;97079.47;5048517;28;20313;-70
2023/05/20 04:21:50;;;;;;;10.03;9.17;;;;;;;10.54;100.00;97086.94;5070789;28;20260;-68
2023/05/20 04:24:18;;;;;;;9.93;9.13;;;;;;;10.65;100.00;97080.34;5024810;28;20351;-70
2023/05/20 04:26:45;;;;;;;9.77;8.97;;;;;;;10.81;100.00;97084.59;5057807;28;20394;-71
2023/05/20 04:29:14;;;;;;;11.20;10.17;;;;;;;10.86;100.00;97079.53;5073598;28;20206;-67
2023/05/20 04:31:44;;;;;;;10.20;9.43;;;;;;;10.97;100.00;97083.50;5032536;28;20683;-66
2023/05/20 04:34:13;;;;;;;9.67;8.90;;;;;;;11.08;100.00;97082.16;5055921;28;20498;-69
2023/05/20 04:36:42;;;;;;;9.53;8.83;;;;;;;11.21;100.00;97086.78;5074099;27;20197;-69
2023/05/20 04:39:09;;;;;;;9.60;8.83;;;;;;;11.32;100.00;97078.31;5072650;27;20810;-70
2023/05/20 04:41:38;;;;;;;10.13;9.33;;;;;;;11.40;100.00;97077.34;5012148;28;20502;-68
2023/05/20 04:44:06;;;;;;;11.07;10.20;;;;;;;11.50;100.00;97083.16;5075790;28;20213;-69
2023/05/20 04:46:33;;;;;;;9.70;8.90;;;;;;;11.60;100.00;97068.75;5057475;27;20222;-68
2023/05/20 04:49:03;;;;;;;10.27;9.47;;;;;;;11.69;100.00;97078.19;5059481;27;20216;-71
2023/05/20 04:51:33;;;;;;;11.10;10.03;;;;;;;11.84;100.00;97064.81;5074774;27;20757;-71
2023/05/20 04:54:01;;;;;;;10.83;9.83;;;;;;;12.01;100.00;97070.66;5072742;28;20194;-71
2023/05/20 04:56:28;;;;;;;10.90;9.97;;;;;;;12.05;100.00;97063.94;5008172;27;20383;-69
2023/05/20 04:58:57;;;;;;;10.90;9.97;;;;;;;12.23;100.00;97073.22;5072213;28;20205;-72
2023/05/20 05:01:25;;;;;;;10.53;9.70;;;;;;;12.27;100.00;97075.28;5059019;27;20224;-70
2023/05/20 05:03:52;;;;;;;10.43;9.63;;;;;;;12.39;100.00;97064.09;5072026;27;20201;-70
2023/05/20 05:06:20;;;;;;;11.63;10.53;;;;;;;12.49;100.00;97064.53;5055057;27;20302;-69
2023/05/20 05:08:49;;;;;;;9.93;9.07;;;;;;;12.54;100.00;97056.78;5074223;27;20379;-70
2023/05/20 05:11:17;;;;;;;10.13;9.27;;;;;;;12.64;100.00;97058.25;5021146;28;20225;-67
2023/05/20 05:13:44;;;;;;;10.63;9.83;;;;;;;12.70;100.00;97058.28;5059259;27;20417;-68
2023/05/20 05:16:12;;;;;;;10.57;9.77;;;;;;;12.72;100.00;97064.22;5076544;27;20202;-69
2023/05/20 05:18:40;;;;;;;10.63;9.73;;;;;;;12.80;100.00;97075.69;5072475;28;20518;-67
2023/05/20 05:21:07;;;;;;;10.30;9.50;;;;;;;12.94;100.00;97064.03;5057319;27;20221;-71
2023/05/20 05:23:35;;;;;;;10.10;9.30;;;;;;;13.01;100.00;97064.88;5071415;28;20754;-71
2023/05/20 05:26:04;;;;;;;9.57;8.93;;;;;;;13.10;100.00;97062.03;5023998;27;20219;-69
2023/05/20 05:28:31;;;;;;;9.17;8.47;;;;;;;13.27;100.00;97060.59;5057582;27;20236;-72
2023/05/20 05:31:00;;;;;;;10.33;9.60;;;;;;;13.32;100.00;97046.69;5072614;27;20332;-68
2023/05/20 05:33:28;;;;;;;9.73;9.03;;;;;;;13.37;100.00;97056.69;5054884;28;20205;-70
2023/05/20 05:35:57;;;;;;;10.07;9.33;;;;;;;13.48;100.00;97061.47;5059002;27;20197;-68
2023/05/20 05:38:25;;;;;;;10.07;9.37;;;;;;;13.48;100.00;97061.47;5065946;27;20213;-71
2023/05/20 05:40:53;;;;;;;9.63;8.87;;;;;;;13.75;100.00;97051.59;5073060;27;20221;-69
2023/05/20 05:43:22;;;;;;;9.80;8.77;;;;;;;13.83;100.00;97057.72;4999429;27;20299;-71
2023/05/20 05:45:49;;;;;;;10.67;9.70;;;;;;;13.90;100.00;97058.53;5064272;27;20206;-69
2023/05/20 05:48:17;;;;;;;9.70;8.93;;;;;;;13.99;100.00;97065.25;5034757;27;21507;-71
2023/05/20 05:50:45;;;;;;;10.20;9.40;;;;;;;14.04;100.00;97060.16;5034397;27;20909;-68
2023/05/20 05:53:13;;;;;;;9.47;8.83;;;;;;;14.08;100.00;97044.53;5069435;27;21273;-67
2023/05/20 05:55:40;;;;;;;11.00;10.07;;;;;;;14.22;100.00;97058.63;5073020;28;20370;-68
2023/05/20 05:58:08;;;;;;;10.43;9.53;;;;;;;14.24;100.00;97051.25;5024798;27;20297;-68
2023/05/20 06:00:37;;;;;;;10.27;9.47;;;;;;;14.15;100.00;97047.19;5060451;28;20372;-69
2023/05/20 06:03:05;;;;;;;10.93;10.03;;;;;;;13.87;100.00;97027.81;5056082;28;23200;-68
2023/05/20 06:05:32;;;;;;;10.20;9.40;;;;;;;14.06;100.00;97035.94;5073814;27;20198;-68
2023/05/20 06:08:01;;;;;;;10.43;9.53;;;;;;;14.25;100.00;97038.75;5066714;27;20222;-70
2023/05/20 06:10:28;;;;;;;10.90;10.00;;;;;;;14.54;100.00;97039.22;5069365;27;20208;-68
2023/05/20 06:12:56;;;;;;;10.43;9.63;;;;;;;14.64;100.00;97041.44;5018347;27;20277;-66
2023/05/20 06:15:23;;;;;;;10.10;9.40;;;;;;;14.73;100.00;97050.84;5065306;27;20320;-66
2023/05/20 06:17:52;;;;;;;11.63;10.73;;;;;;;14.73;100.00;97043.69;5068924;27;20292;-65
2023/05/20 06:20:20;;;;;;;10.30;9.33;;;;;;;14.81;100.00;97047.13;5057624;27;20212;-67
2023/05/20 06:22:48;;;;;;;9.33;8.70;;;;;;;14.93;100.00;97041.91;5031269;27;20891;-65
2023/05/20 06:25:15;;;;;;;10.60;9.60;;;;;;;15.02;100.00;97033.44;5076101;27;20296;-66
2023/05/20 06:27:43;;;;;;;9.97;9.17;;;;;;;15.10;100.00;97040.34;5040866;27;20780;-67
2023/05/20 06:30:12;;;;;;;9.53;8.83;;;;;;;15.05;100.00;97030.34;5064642;27;20608;-66
2023/05/20 06:32:39;;;;;;;9.97;9.20;;;;;;;15.34;100.00;97038.75;5056523;27;20747;-68
2023/05/20 06:35:10;;;;;;;9.87;9.17;;;;;;;15.42;100.00;97040.31;5056173;27;20541;-68
2023/05/20 06:37:37;;;;;;;10.40;9.60;;;;;;;15.41;100.00;97006.66;5063174;27;21059;-67
2023/05/20 06:40:07;;;;;;;10.20;9.40;;;;;;;15.68;100.00;97029.59;5065608;27;20212;-69
2023/05/20 06:42:35;;;;;;;10.13;9.43;;;;;;;15.83;100.00;97034.59;5076199;27;20253;-68
2023/05/20 06:45:02;;;;;;;11.03;10.00;;;;;;;15.90;100.00;97030.84;5029568;27;20797;-67
2023/05/20 06:47:30;;;;;;;9.50;8.80;;;;;;;15.87;100.00;97031.28;5061948;27;20309;-66
2023/05/20 06:49:58;;;;;;;9.47;8.63;;;;;;;15.89;100.00;97025.72;5074083;27;20197;-67
2023/05/20 06:52:27;;;;;;;9.60;8.70;;;;;;;16.21;100.00;97030.91;5055439;27;20229;-69
2023/05/20 06:54:56;;;;;;;9.23;8.53;;;;;;;16.19;100.00;97028.47;5052657;27;21051;-69
2023/05/20 06:57:23;;;;;;;10.20;9.30;;;;;;;16.20;100.00;97026.63;5070017;27;20215;-67
2023/05/20 06:59:51;;;;;;;9.23;8.43;;;;;;;16.30;100.00;97013.56;5032475;27;20844;-67
2023/05/20 07:02:18;;;;;;;9.07;8.23;;;;;;;16.25;100.00;97020.59;5075387;27;20222;-68
2023/05/20 07:04:46;;;;;;;9.60;8.80;;;;;;;16.49;100.00;97016.19;5058958;28;20358;-67
2023/05/20 07:07:13;;;;;;;8.97;8.17;;;;;;;16.65;100.00;97012.06;5052497;27;20554;-68
2023/05/20 07:09:45;;;;;;;9.00;8.30;;;;;;;16.64;100.00;97011.22;5052593;27;20445;-67
2023/05/20 07:12:13;;;;;;;8.83;8.20;;;;;;;16.41;100.00;96995.91;5075986;27;20303;-67
2023/05/20 07:14:40;;;;;;;8.10;7.53;;;;;;;16.73;100.00;97022.44;5022988;28;22482;-67
2023/05/20 07:17:08;;;;;;;7.83;7.33;;;;;;;16.66;100.00;97016.38;5074381;27;20657;-70
2023/05/20 07:19:35;;;;;;;8.77;8.13;;;;;;;16.51;100.00;97003.41;5056920;28;20642;-67
2023/05/20 07:22:03;;;;;;;8.13;7.53;;;;;;;16.55;100.00;97015.28;5049182;28;20873;-70
2023/05/20 07:24:31;;;;;;;8.03;7.43;;;;;;;16.74;100.00;97018.72;5046869;27;20202;-69
2023/05/20 07:27:00;;;;;;;8.87;8.27;;;;;;;16.76;100.00;97013.16;5070964;28;20233;-69
2023/05/20 07:29:28;;;;;;;8.70;8.10;;;;;;;16.83;100.00;97010.34;5069218;27;20198;-69
2023/05/20 07:31:55;;;;;;;8.50;7.83;;;;;;;16.89;100.00;96988.06;5029840;27;20237;-69
2023/05/20 07:34:23;;;;;;;8.97;8.27;;;;;;;17.04;100.00;96990.31;5056109;27;20640;-69
2023/05/20 07:36:52;;;;;;;8.37;7.83;;;;;;;17.30;100.00;97007.00;5068612;28;20263;-69
2023/05/20 07:39:19;;;;;;;9.30;8.50;;;;;;;17.36;100.00;97001.53;5043385;28;20225;-69
2023/05/20 07:41:47;;;;;;;9.37;8.40;;;;;;;17.30;100.00;97004.31;5055307;27;20265;-69
2023/05/20 07:44:17;;;;;;;9.33;8.60;;;;;;;17.24;100.00;96999.88;5064948;27;20375;-69
2023/05/20 07:46:45;;;;;;;9.13;8.40;;;;;;;17.30;100.00;97002.47;5024767;28;20787;-70
2023/05/20 07:49:12;;;;;;;8.87;8.17;;;;;;;17.39;100.00;96991.41;5051793;28;20318;-68
2023/05/20 07:51:40;;;;;;;8.77;8.17;;;;;;;17.54;100.00;96997.09;5065414;28;20302;-71
2023/05/20 07:54:08;;;;;;;9.30;8.60;;;;;;;17.55;100.00;96981.84;5047981;27;20302;-69
2023/05/20 07:56:35;;;;;;;8.33;7.73;;;;;;;17.61;100.00;96989.75;5047850;28;21077;-70
2023/05/20 07:59:03;;;;;;;8.43;7.63;;;;;;;17.69;100.00;96985.13;5068732;28;20216;-70
2023/05/20 08:01:33;;;;;;;9.13;8.43;;;;;;;17.76;100.00;96996.50;5027521;28;20336;-70
2023/05/20 08:04:01;;;;;;;9.33;8.57;;;;;;;17.75;100.00;96987.66;5054991;28;20208;-68
2023/05/20 08:06:28;;;;;;;9.37;8.67;;;;;;;17.85;100.00;96992.41;5067107;28;20961;-68
2023/05/20 08:08:56;;;;;;;9.17;8.47;;;;;;;17.78;100.00;96989.06;5054522;28;20225;-67
2023/05/20 08:11:24;;;;;;;9.40;8.63;;;;;;;17.96;100.00;96988.09;5056306;28;20221;-71
2023/05/20 08:13:52;;;;;;;8.30;7.73;;;;;;;18.00;100.00;96980.41;5052809;28;20210;-68
2023/05/20 08:16:21;;;;;;;8.07;7.57;;;;;;;18.11;100.00;96986.78;5069773;28;20205;-68
2023/05/20 08:18:50;;;;;;;8.90;8.30;;;;;;;18.16;100.00;96985.03;5024695;27;20593;-69
2023/05/20 08:21:17;;;;;;;8.07;7.57;;;;;;;18.12;100.00;96981.22;5067664;27;21054;-70
2023/05/20 08:23:45;;;;;;;8.27;7.67;;;;;;;17.70;100.00;96928.59;5066109;28;20201;-68
2023/05/20 08:26:13;;;;;;;8.07;7.47;;;;;;;18.08;100.00;96953.25;5067028;27;20212;-69
2023/05/20 08:28:40;;;;;;;8.00;7.17;;;;;;;18.42;100.00;96984.72;5052673;27;20317;-69
2023/05/20 08:31:09;;;;;;;8.73;8.03;;;;;;;18.48;100.00;96976.53;5075104;27;20225;-69
2023/05/20 08:33:37;;;;;;;8.47;7.77;;;;;;;18.59;100.00;96974.88;5047428;27;20202;-64
2023/05/20 08:36:07;;;;;;;8.33;7.83;;;;;;;18.44;100.00;96966.50;5052506;27;20338;-64
2023/05/20 08:38:35;;;;;;;10.17;9.30;;;;;;;18.56;100.00;96980.72;5074816;27;20738;-65
2023/05/20 08:41:03;;;;;;;11.13;9.97;;;;;;;18.74;100.00;96978.84;5050260;27;20255;-66
2023/05/20 08:43:31;;;;;;;9.63;8.93;;;;;;;18.95;100.00;96978.16;5058859;27;20210;-65
2023/05/20 08:46:01;;;;;;;10.10;9.23;;;;;;;18.91;100.00;96978.88;5073818;27;20508;-66
2023/05/20 08:48:30;;;;;;;8.63;8.03;;;;;;;19.02;100.00;96975.34;5067981;28;20779;-65
2023/05/20 08:50:58;;;;;;;8.40;7.80;;;;;;;19.06;100.00;96973.78;5018961;28;20753;-68
2023/05/20 08:53:27;;;;;;;8.10;7.50;;;;;;;19.02;100.00;96971.84;5074576;27;20270;-68
2023/05/20 08:55:56;;;;;;;9.23;8.43;;;;;;;19.32;100.00;96971.50;5056418;27;20558;-67
2023/05/20 08:58:28;;;;;;;8.97;8.37;;;;;;;19.81;100.00;96972.72;5057783;27;20468;-66
2023/05/20 09:00:57;;;;;;;9.90;9.00;;;;;;;19.73;100.00;96959.72;5049900;27;20229;-67
2023/05/20 09:03:25;;;;;;;9.47;8.57;;;;;;;19.70;100.00;96969.09;5069003;28;20217;-68
2023/05/20 09:05:53;;;;;;;8.83;8.03;;;;;;;19.87;100.00;96971.72;5004332;27;20217;-68
2023/05/20 09:08:25;;;;;;;9.03;8.30;;;;;;;19.92;100.00;96973.69;5074453;27;20437;-70
2023/05/20 09:10:54;;;;;;;9.53;8.73;;;;;;;19.87;100.00;96977.09;5067746;28;20340;-68
2023/05/20 09:13:23;;;;;;;9.20;8.43;;;;;;;19.67;100.00;96972.25;5054523;27;20670;-69
2023/05/20 09:15:51;;;;;;;9.37;8.67;;;;;;;19.72;100.00;96971.53;5032189;27;20217;-69
2023/05/20 09:18:19;;;;;;;8.33;7.67;;;;;;;19.89;100.00;96975.00;5074057;27;20728;-71
2023/05/20 09:20:48;;;;;;;8.33;7.63;;;;;;;20.05;100.00;96972.50;5010155;28;20882;-68
2023/05/20 09:23:15;;;;;;;8.83;8.17;;;;;;;19.91;100.00;96955.94;5069676;28;20998;-69
2023/05/20 09:25:43;;;;;;;8.30;7.73;;;;;;;20.14;100.00;96975.59;5074573;27;20715;-68
2023/05/20 09:28:12;;;;;;;8.60;7.80;;;;;;;20.01;97.65;96971.38;5071013;27;20328;-68
2023/05/20 09:30:39;;;;;;;8.47;7.73;;;;;;;20.12;100.00;96983.09;5052075;27;20351;-67
2023/05/20 09:33:08;;;;;;;8.57;7.93;;;;;;;20.05;100.00;96973.31;5078310;28;20201;-67
2023/05/20 09:35:37;;;;;;;8.30;7.70;;;;;;;20.12;97.72;96973.13;5030153;27;20649;-68
2023/05/20 09:38:06;;;;;;;8.67;7.87;;;;;;;20.12;99.83;96969.66;5075826;27;20285;-69
2023/05/20 09:40:36;;;;;;;8.43;7.57;;;;;;;20.17;100.00;96967.81;5045503;27;20293;-69
2023/05/20 09:43:06;;;;;;;8.23;7.63;;;;;;;20.18;100.00;96961.38;5056796;27;20244;-70
2023/05/20 09:45:35;;;;;;;8.63;7.93;;;;;;;20.38;100.00;96962.66;5071979;27;20639;-69
2023/05/20 09:48:04;;;;;;;7.87;7.37;;;;;;;20.41;95.74;96962.16;5073019;28;20312;-68
2023/05/20 09:50:32;;;;;;;8.53;7.83;;;;;;;20.52;98.64;96952.31;5024305;27;20288;-69
2023/05/20 09:53:03;;;;;;;9.33;8.73;;;;;;;20.55;100.00;96962.56;5046980;27;20249;-69
2023/05/20 09:55:31;;;;;;;9.37;8.40;;;;;;;20.38;99.40;96951.91;5047151;27;20237;-68
2023/05/20 09:58:02;;;;;;;9.53;8.83;;;;;;;20.39;100.00;96946.25;5074226;27;21036;-70
2023/05/20 10:00:30;;;;;;;9.87;9.07;;;;;;;20.46;100.00;96945.28;5052657;27;20678;-67
2023/05/20 10:02:59;;;;;;;10.43;9.53;;;;;;;20.30;100.00;96942.41;5058832;28;20768;-67
2023/05/20 10:05:29;;;;;;;9.60;8.90;;;;;;;20.21;100.00;96919.72;5071308;27;20206;-68
2023/05/20 10:08:24;;;;;;;9.60;8.90;;;;;;;20.53;100.00;96943.19;5043351;27;20316;-66
2023/05/20 10:10:57;;;;;;;8.70;8.10;;;;;;;20.98;100.00;96934.97;5071906;28;20221;-68
2023/05/20 10:13:45;;;;;;;9.07;8.37;;;;;;;21.03;100.00;96932.31;5054642;27;20256;-69
2023/05/20 10:16:22;;;;;;;9.50;8.80;;;;;;;20.95;100.00;96930.91;5036629;27;20220;-69
2023/05/20 10:18:56;;;;;;;9.40;8.57;;;;;;;20.92;100.00;96939.50;5054484;27;20209;-69
2023/05/20 10:21:24;;;;;;;9.30;8.60;;;;;;;20.82;100.00;96932.16;5075584;27;20640;-67
2023/05/20 10:23:52;;;;;;;10.00;9.20;;;;;;;21.04;99.33;96936.63;5024135;28;20210;-66
2023/05/20 10:26:20;;;;;;;9.93;9.13;;;;;;;21.03;100.00;96935.84;5076973;28;20316;-67
2023/05/20 10:28:48;;;;;;;9.60;9.00;;;;;;;20.93;100.00;96925.78;5053429;28;20230;-70
2023/05/20 10:31:17;;;;;;;10.17;9.37;;;;;;;21.02;100.00;96920.72;5056593;27;20233;-69
2023/05/20 10:33:46;;;;;;;9.00;8.33;;;;;;;20.85;100.00;96914.69;5072555;28;20300;-68
2023/05/20 10:36:26;;;;;;;10.03;8.97;;;;;;;21.07;100.00;96912.72;5077015;28;21139;-69
2023/05/20 10:38:55;;;;;;;9.30;8.67;;;;;;;21.06;98.46;96904.88;5029457;27;20525;-69
2023/05/20 10:41:25;;;;;;;10.60;9.67;;;;;;;21.47;100.00;96913.22;5072185;27;20939;-68
2023/05/20 10:44:02;;;;;;;9.23;8.60;;;;;;;21.54;96.31;96910.28;5057853;27;20635;-68
2023/05/20 10:46:30;;;;;;;9.20;8.43;;;;;;;21.28;100.00;96926.28;5053596;27;20992;-67
2023/05/20 10:49:18;;;;;;;11.20;10.10;;;;;;;21.42;99.97;96909.69;5043008;27;20400;-70
2023/05/20 10:51:52;;;;;;;9.57;8.87;;;;;;;21.60;95.15;96911.94;5075432;28;20262;-68
2023/05/20 10:54:20;;;;;;;9.80;9.10;;;;;;;21.76;95.24;96903.94;5023016;28;20521;-69
2023/05/20 10:56:52;;;;;;;9.70;9.07;;;;;;;22.25;95.05;96895.47;5074446;28;20210;-67
2023/05/20 10:59:20;;;;;;;9.90;9.00;;;;;;;22.57;89.95;96900.94;5065861;27;20201;-67
2023/05/20 11:01:48;;;;;;;9.63;8.93;;;;;;;22.53;89.74;96900.66;5056015;27;20371;-69
2023/05/20 11:04:16;;;;;;;8.93;8.33;;;;;;;22.89;92.55;96906.09;5074101;27;20470;-69
2023/05/20 11:06:52;;;;;;;8.90;8.30;;;;;;;22.74;83.69;96879.88;5077924;27;20208;-72
2023/05/20 11:09:20;;;;;;;10.37;9.57;;;;;;;22.53;83.76;96897.97;5026271;27;20259;-70
2023/05/20 11:11:49;;;;;;;9.63;8.93;;;;;;;22.37;87.16;96889.84;5070126;27;20229;-67
2023/05/20 11:14:18;;;;;;;9.10;8.50;;;;;;;21.93;87.62;96891.06;5052032;27;20947;-69
2023/05/20 11:16:47;;;;;;;10.00;9.23;;;;;;;22.19;92.51;96895.72;5054926;27;20644;-68
2023/05/20 11:19:15;;;;;;;10.67;9.87;;;;;;;22.57;91.35;96896.34;5068835;28;20786;-68
2023/05/20 11:21:44;;;;;;;9.90;9.10;;;;;;;22.89;84.83;96891.75;5047841;27;20422;-68
2023/05/20 11:24:13;;;;;;;10.17;9.27;;;;;;;23.25;86.34;96884.47;5023912;27;20699;-70
2023/05/20 11:26:40;;;;;;;9.73;9.07;;;;;;;23.81;85.67;96887.25;5074063;27;20309;-68
2023/05/20 11:29:08;;;;;;;10.13;9.33;;;;;;;23.64;78.42;96880.28;5057155;28;20226;-67
2023/05/20 11:31:37;;;;;;;10.27;9.47;;;;;;;23.22;79.07;96876.88;5057833;27;20880;-69